createdAt,value
2023-01-22T00:01:17.980Z,94.89
2023-01-22T00:03:47.001Z,94.88
2023-01-22T00:06:15.340Z,94.88
2023-01-22T00:08:43.537Z,94.88
2023-01-22T00:11:11.759Z,94.90
2023-01-22T00:13:39.888Z,94.90
2023-01-22T00:16:08.746Z,94.91
2023-01-22T00:18:36.770Z,94.90
2023-01-22T00:21:04.787Z,94.88
2023-01-22T00:23:33.211Z,94.86
2023-01-22T00:26:12.942Z,94.85
2023-01-22T00:28:42.538Z,94.85
2023-01-22T00:31:11.939Z,94.85
2023-01-22T00:33:42.630Z,94.86
2023-01-22T00:36:14.017Z,94.89
2023-01-22T00:38:41.951Z,94.89
2023-01-22T00:41:10.231Z,94.89
2023-01-22T00:44:29.289Z,94.87
2023-01-22T00:46:57.124Z,94.87
2023-01-22T00:49:24.993Z,94.86
2023-01-22T00:51:52.813Z,94.85
2023-01-22T00:54:20.714Z,94.88
2023-01-22T00:56:48.493Z,94.89
2023-01-22T00:59:17.009Z,94.90
2023-01-22T01:01:45.030Z,94.92
2023-01-22T01:04:14.479Z,94.91
2023-01-22T01:06:42.267Z,94.89
2023-01-22T01:09:13.733Z,94.87
2023-01-22T01:11:41.697Z,94.85
2023-01-22T01:14:09.593Z,94.83
2023-01-22T01:16:37.505Z,94.84
2023-01-22T01:19:10.073Z,94.83
2023-01-22T01:21:38.952Z,94.81
2023-01-22T01:24:07.055Z,94.81
2023-01-22T01:26:35.395Z,94.82
2023-01-22T01:29:04.858Z,94.83
2023-01-22T01:31:32.962Z,94.82
2023-01-22T01:34:00.868Z,94.83
2023-01-22T01:36:47.692Z,94.83
2023-01-22T01:39:18.584Z,94.82
2023-01-22T01:41:48.244Z,94.82
2023-01-22T01:44:19.388Z,94.81
2023-01-22T01:46:55.916Z,94.81
2023-01-22T01:49:33.951Z,94.80
2023-01-22T01:52:08.392Z,94.78
2023-01-22T01:54:37.921Z,94.75
2023-01-22T01:57:11.663Z,94.76
2023-01-22T01:59:39.633Z,94.76
2023-01-22T02:02:07.793Z,94.77
2023-01-22T02:04:35.725Z,94.74
2023-01-22T02:07:07.038Z,94.73
2023-01-22T02:09:35.217Z,94.74
2023-01-22T02:12:03.507Z,94.75
2023-01-22T02:18:29.500Z,94.74
2023-01-22T02:21:00.581Z,94.75
2023-01-22T02:23:31.510Z,94.74
2023-01-22T02:26:00.189Z,94.72
2023-01-22T02:28:28.094Z,94.70
2023-01-22T02:30:56.368Z,94.70
2023-01-22T02:36:17.537Z,94.70
2023-01-22T02:38:45.542Z,94.68
2023-01-22T02:41:13.630Z,94.69
2023-01-22T02:43:41.689Z,94.68
2023-01-22T02:46:09.623Z,94.68
2023-01-22T02:48:37.452Z,94.67
2023-01-22T02:51:06.072Z,94.69
2023-01-22T02:53:34.153Z,94.68
2023-01-22T02:56:10.019Z,94.67
2023-01-22T02:58:39.227Z,94.68
2023-01-22T03:01:21.245Z,94.65
2023-01-22T03:03:58.474Z,94.67
2023-01-22T03:06:28.908Z,94.66
2023-01-22T03:09:00.680Z,94.69
2023-01-22T03:11:30.715Z,94.70
2023-01-22T03:14:24.109Z,94.70
2023-01-22T03:17:12.474Z,94.70
2023-01-22T03:19:58.783Z,94.70
2023-01-22T03:22:27.754Z,94.66
2023-01-22T03:25:00.466Z,94.67
2023-01-22T03:27:30.829Z,94.65
2023-01-22T03:29:59.263Z,94.65
2023-01-22T03:32:27.655Z,94.62
2023-01-22T03:34:56.438Z,94.62
2023-01-22T03:37:24.838Z,94.61
2023-01-22T03:39:54.353Z,94.62
2023-01-22T03:42:27.459Z,94.64
2023-01-22T03:44:55.910Z,94.64
2023-01-22T03:47:25.213Z,94.66
2023-01-22T03:49:53.266Z,94.66
2023-01-22T03:52:21.522Z,94.65
2023-01-22T03:54:49.472Z,94.64
2023-01-22T03:57:17.371Z,94.62
2023-01-22T03:59:45.372Z,94.61
2023-01-22T04:03:03.867Z,94.58
2023-01-22T04:05:32.254Z,94.59
2023-01-22T04:08:00.529Z,94.60
2023-01-22T04:10:31.904Z,94.60
2023-01-22T04:13:02.276Z,94.61
2023-01-22T04:15:30.319Z,94.58
2023-01-22T04:17:59.714Z,94.58
2023-01-22T04:20:34.401Z,94.57
2023-01-22T04:23:20.132Z,94.57
2023-01-22T04:25:49.940Z,94.60
2023-01-22T04:28:19.367Z,94.59
2023-01-22T04:34:38.377Z,94.61
2023-01-22T04:37:30.327Z,94.55
2023-01-22T04:39:58.207Z,94.53
2023-01-22T04:42:27.311Z,94.53
2023-01-22T04:44:55.293Z,94.53
2023-01-22T04:47:23.286Z,94.52
2023-01-22T04:49:51.446Z,94.52
2023-01-22T04:52:19.675Z,94.54
2023-01-22T04:54:48.510Z,94.52
2023-01-22T04:57:16.460Z,94.52
2023-01-22T04:59:45.583Z,94.46
2023-01-22T05:02:13.609Z,94.46
2023-01-22T05:04:43.654Z,94.46
2023-01-22T05:07:11.604Z,94.43
2023-01-22T05:09:39.574Z,94.40
2023-01-22T05:12:07.640Z,94.43
2023-01-22T05:14:41.468Z,94.45
2023-01-22T05:17:09.643Z,94.44
2023-01-22T05:19:37.720Z,94.44
2023-01-22T05:22:09.563Z,94.40
2023-01-22T05:24:38.129Z,94.41
2023-01-22T05:27:06.200Z,94.41
2023-01-22T05:29:42.285Z,94.39
2023-01-22T05:32:30.070Z,94.37
2023-01-22T05:34:58.065Z,94.35
2023-01-22T05:37:26.814Z,94.35
2023-01-22T05:39:56.499Z,94.39
2023-01-22T05:42:24.729Z,94.40
2023-01-22T05:44:52.814Z,94.39
2023-01-22T05:47:24.409Z,94.39
2023-01-22T05:50:11.425Z,94.38
2023-01-22T05:52:39.507Z,94.36
2023-01-22T05:55:09.154Z,94.34
2023-01-22T05:57:42.374Z,94.35
2023-01-22T06:00:12.181Z,94.36
2023-01-22T06:02:44.419Z,94.34
2023-01-22T06:05:13.823Z,94.31
2023-01-22T06:07:42.192Z,94.31
2023-01-22T06:10:10.459Z,94.32
2023-01-22T06:12:42.539Z,94.31
2023-01-22T06:15:11.757Z,94.33
2023-01-22T06:17:41.574Z,94.30
2023-01-22T06:20:10.455Z,94.29
2023-01-22T06:22:38.315Z,94.31
2023-01-22T06:25:09.407Z,94.28
2023-01-22T06:27:56.881Z,94.26
2023-01-22T06:30:25.092Z,94.25
2023-01-22T06:32:54.832Z,94.23
2023-01-22T06:35:23.597Z,94.25
2023-01-22T06:37:51.894Z,94.26
2023-01-22T06:40:20.543Z,94.27
2023-01-22T06:42:50.052Z,94.29
2023-01-22T06:45:18.225Z,94.27
2023-01-22T06:47:50.429Z,94.27
2023-01-22T06:50:19.228Z,94.26
2023-01-22T06:52:47.283Z,94.26
2023-01-22T06:55:16.594Z,94.27
2023-01-22T06:57:44.708Z,94.28
2023-01-22T07:00:12.970Z,94.28
2023-01-22T07:02:41.116Z,94.29
2023-01-22T07:05:10.320Z,94.29
2023-01-22T07:07:38.258Z,94.27
2023-01-22T07:10:06.478Z,94.23
2023-01-22T07:12:34.474Z,94.22
2023-01-22T07:15:05.378Z,94.25
2023-01-22T07:17:34.289Z,94.22
2023-01-22T07:20:02.226Z,94.21
2023-01-22T07:22:31.808Z,94.23
2023-01-22T07:24:59.641Z,94.22
2023-01-22T07:27:27.487Z,94.24
2023-01-22T07:29:55.420Z,94.21
2023-01-22T07:32:23.447Z,94.22
2023-01-22T07:34:52.069Z,94.22
2023-01-22T07:37:20.055Z,94.17
2023-01-22T07:39:48.327Z,94.19
2023-01-22T07:42:16.265Z,94.18
2023-01-22T07:44:44.214Z,94.19
2023-01-22T07:47:12.186Z,94.18
2023-01-22T07:49:40.095Z,94.18
2023-01-22T07:52:08.008Z,94.17
2023-01-22T07:54:36.550Z,94.16
2023-01-22T07:57:04.978Z,94.15
2023-01-22T07:59:33.061Z,94.12
2023-01-22T08:02:03.377Z,94.09
2023-01-22T08:04:31.698Z,94.05
2023-01-22T08:06:59.597Z,94.06
2023-01-22T08:09:28.074Z,94.07
2023-01-22T08:11:56.009Z,94.05
2023-01-22T08:14:24.092Z,94.02
2023-01-22T08:16:51.926Z,93.99
2023-01-22T08:19:19.836Z,93.95
2023-01-22T08:21:47.926Z,93.92
2023-01-22T08:24:16.043Z,93.91
2023-01-22T08:26:45.471Z,93.91
2023-01-22T08:29:14.066Z,93.89
2023-01-22T08:31:42.216Z,93.91
2023-01-22T08:34:10.296Z,93.91
2023-01-22T08:36:38.459Z,93.90
2023-01-22T08:39:06.636Z,93.85
2023-01-22T08:41:34.655Z,93.80
2023-01-22T08:44:03.457Z,93.79
2023-01-22T08:46:31.839Z,93.80
2023-01-22T08:48:59.740Z,93.73
2023-01-22T08:51:27.966Z,93.70
2023-01-22T08:53:55.913Z,93.68
2023-01-22T08:56:23.908Z,93.68
2023-01-22T08:58:52.890Z,93.62
2023-01-22T09:01:21.260Z,93.64
2023-01-22T09:03:49.521Z,93.59
2023-01-22T09:06:17.437Z,93.56
2023-01-22T09:08:45.411Z,93.50
2023-01-22T09:11:13.355Z,93.50
2023-01-22T09:13:41.342Z,93.49
2023-01-22T09:16:11.905Z,93.49
2023-01-22T09:18:40.109Z,93.46
2023-01-22T09:21:08.638Z,93.44
2023-01-22T09:23:36.773Z,93.42
2023-01-22T09:26:05.151Z,93.39
2023-01-22T09:28:35.894Z,93.35
2023-01-22T09:31:04.606Z,93.36
2023-01-22T09:33:32.576Z,93.30
2023-01-22T09:36:15.013Z,93.29
2023-01-22T09:38:43.822Z,93.27
2023-01-22T09:41:27.493Z,93.29
2023-01-22T09:44:07.533Z,93.22
2023-01-22T09:46:46.165Z,93.21
2023-01-22T09:49:20.087Z,93.18
2023-01-22T09:51:55.108Z,93.19
2023-01-22T09:54:23.781Z,93.08
2023-01-22T09:56:53.735Z,93.08
2023-01-22T09:59:43.838Z,93.07
2023-01-22T10:02:29.748Z,93.09
2023-01-22T10:05:22.095Z,93.04
2023-01-22T10:07:57.089Z,92.95
2023-01-22T10:10:27.359Z,92.89
2023-01-22T10:13:10.975Z,92.91
2023-01-22T10:15:39.634Z,92.84
2023-01-22T10:18:22.734Z,92.86
2023-01-22T10:20:51.006Z,92.78
2023-01-22T10:23:22.654Z,92.66
2023-01-22T10:25:55.742Z,92.64
2023-01-22T10:28:27.097Z,92.63
2023-01-22T10:30:58.898Z,92.63
2023-01-22T10:33:27.975Z,92.55
2023-01-22T10:35:57.248Z,92.41
2023-01-22T10:38:25.446Z,92.35
2023-01-22T10:40:56.787Z,92.30
2023-01-22T10:43:36.785Z,92.05
2023-01-22T10:46:16.132Z,91.97
2023-01-22T10:48:44.772Z,91.78
2023-01-22T10:51:16.721Z,91.74
2023-01-22T10:53:46.842Z,91.73
2023-01-22T10:56:27.496Z,91.66
2023-01-22T10:58:57.279Z,91.42
2023-01-22T11:04:37.153Z,91.28
2023-01-22T11:07:26.616Z,91.00
2023-01-22T11:10:07.012Z,90.97
2023-01-22T11:12:40.333Z,90.92
2023-01-22T11:15:33.030Z,90.91
2023-01-22T11:18:03.801Z,90.85
2023-01-22T11:20:48.693Z,90.83
2023-01-22T11:23:27.289Z,90.73
2023-01-22T11:26:09.822Z,90.64
2023-01-22T11:28:52.502Z,90.65
2023-01-22T11:31:34.955Z,90.51
2023-01-22T11:34:19.785Z,90.56
2023-01-22T11:37:05.893Z,90.37
2023-01-22T11:39:44.403Z,90.24
2023-01-22T11:42:21.617Z,90.05
2023-01-22T11:45:07.688Z,89.90
2023-01-22T11:47:59.990Z,89.82
2023-01-22T11:50:42.242Z,89.76
2023-01-22T11:53:35.124Z,89.69
2023-01-22T11:56:15.679Z,89.61
2023-01-22T11:58:59.882Z,89.52
2023-01-22T12:02:03.393Z,89.50
2023-01-22T12:04:43.306Z,89.47
2023-01-22T12:07:45.678Z,89.45
2023-01-22T12:10:32.133Z,89.47
2023-01-22T12:13:06.281Z,89.48
2023-01-22T12:16:08.973Z,89.48
2023-01-22T12:18:56.243Z,89.47
2023-01-22T12:21:40.203Z,89.47
2023-01-22T12:24:11.325Z,89.47
2023-01-22T12:26:59.667Z,89.46
2023-01-22T12:29:33.195Z,89.47
2023-01-22T12:32:15.411Z,89.48
2023-01-22T12:35:06.746Z,89.47
2023-01-22T12:37:43.472Z,89.48
2023-01-22T12:40:26.912Z,89.46
2023-01-22T12:43:06.473Z,89.40
2023-01-22T12:45:46.817Z,89.37
2023-01-22T12:48:25.940Z,89.36
2023-01-22T12:50:56.325Z,89.35
2023-01-22T12:53:31.749Z,89.36
2023-01-22T12:56:05.508Z,89.35
2023-01-22T12:58:36.450Z,89.33
2023-01-22T13:01:24.314Z,89.34
2023-01-22T13:04:03.877Z,89.37
2023-01-22T13:06:33.348Z,89.43
2023-01-22T13:09:02.146Z,89.45
2023-01-22T13:11:34.350Z,89.47
2023-01-22T13:14:40.970Z,89.50
2023-01-22T13:17:40.376Z,89.52
2023-01-22T13:20:17.778Z,89.55
2023-01-22T13:22:46.288Z,89.58
2023-01-22T13:25:30.732Z,89.59
2023-01-22T13:28:00.529Z,89.62
2023-01-22T13:30:31.073Z,89.63
2023-01-22T13:33:10.888Z,89.63
2023-01-22T13:35:44.100Z,89.67
2023-01-22T13:38:17.309Z,89.69
2023-01-22T13:40:51.628Z,89.73
2023-01-22T13:43:22.809Z,89.75
2023-01-22T13:45:53.253Z,89.76
2023-01-22T13:48:24.284Z,89.72
2023-01-22T13:51:05.229Z,89.66
2023-01-22T13:53:43.963Z,89.61
2023-01-22T13:56:17.132Z,89.53
2023-01-22T13:58:48.628Z,89.45
2023-01-22T14:01:28.318Z,89.38
2023-01-22T14:04:32.464Z,89.37
2023-01-22T14:07:01.561Z,89.28
2023-01-22T14:09:36.545Z,89.20
2023-01-22T14:12:34.205Z,89.16
2023-01-22T14:15:02.227Z,89.09
2023-01-22T14:17:34.140Z,89.02
2023-01-22T14:20:02.367Z,88.94
2023-01-22T14:22:30.303Z,88.89
2023-01-22T14:24:58.472Z,88.84
2023-01-22T14:27:29.207Z,88.80
2023-01-22T14:29:57.454Z,88.80
2023-01-22T14:32:26.844Z,88.75
2023-01-22T14:34:55.045Z,88.73
2023-01-22T14:37:23.117Z,88.75
2023-01-22T14:39:51.001Z,88.71
2023-01-22T14:42:19.267Z,88.69
2023-01-22T14:44:47.268Z,88.68
2023-01-22T14:47:15.171Z,88.71
2023-01-22T14:49:43.380Z,88.71
2023-01-22T14:52:11.674Z,88.76
2023-01-22T14:54:39.522Z,88.78
2023-01-22T14:57:07.578Z,88.77
2023-01-22T14:59:35.506Z,88.78
2023-01-22T15:02:03.783Z,88.76
2023-01-22T15:04:31.702Z,88.73
2023-01-22T15:06:59.700Z,88.69
2023-01-22T15:09:27.703Z,88.67
2023-01-22T15:11:55.699Z,88.65
2023-01-22T15:14:23.762Z,88.66
2023-01-22T15:16:51.825Z,88.67
2023-01-22T15:19:19.677Z,88.67
2023-01-22T15:21:48.527Z,88.68
2023-01-22T15:24:16.724Z,88.69
2023-01-22T15:26:44.816Z,88.72
2023-01-22T15:29:14.084Z,88.70
2023-01-22T15:31:43.144Z,88.72
2023-01-22T15:34:11.457Z,88.74
2023-01-22T15:36:42.060Z,88.75
2023-01-22T15:39:10.150Z,88.74
2023-01-22T15:41:38.462Z,88.76
2023-01-22T15:44:06.935Z,88.73
2023-01-22T15:46:37.591Z,88.74
2023-01-22T15:49:08.302Z,88.74
2023-01-22T15:51:36.751Z,88.76
2023-01-22T15:54:07.173Z,88.73
2023-01-22T15:56:37.055Z,88.75
2023-01-22T15:59:05.541Z,88.77
2023-01-22T16:01:33.832Z,88.77
2023-01-22T16:04:03.049Z,88.78
2023-01-22T16:06:33.339Z,88.78
2023-01-22T16:09:03.170Z,88.81
2023-01-22T16:11:32.842Z,88.82
2023-01-22T16:14:01.223Z,88.83
2023-01-22T16:16:32.557Z,88.82
2023-01-22T16:19:03.547Z,88.83
2023-01-22T16:21:31.612Z,88.81
2023-01-22T16:24:01.312Z,88.85
2023-01-22T16:26:31.524Z,88.86
2023-01-22T16:29:01.705Z,88.88
2023-01-22T16:31:32.585Z,88.92
2023-01-22T16:34:07.520Z,88.93
2023-01-22T16:36:35.923Z,89.00
2023-01-22T16:39:04.372Z,89.09
2023-01-22T16:41:35.230Z,89.13
2023-01-22T16:44:12.750Z,89.24
2023-01-22T16:46:43.624Z,89.30
2023-01-22T16:49:20.651Z,89.38
2023-01-22T16:52:16.548Z,89.49
2023-01-22T16:54:45.133Z,89.63
2023-01-22T16:57:13.899Z,89.64
2023-01-22T16:59:41.800Z,89.71
2023-01-22T17:02:15.276Z,89.81
2023-01-22T17:04:44.789Z,89.84
2023-01-22T17:07:27.277Z,89.97
2023-01-22T17:10:00.620Z,90.03
2023-01-22T17:12:28.647Z,90.08
2023-01-22T17:14:56.724Z,90.20
2023-01-22T17:17:24.603Z,90.25
2023-01-22T17:19:53.227Z,90.36
2023-01-22T17:22:21.182Z,90.38
2023-01-22T17:24:50.730Z,90.48
2023-01-22T17:27:20.184Z,90.46
2023-01-22T17:29:48.691Z,90.55
2023-01-22T17:32:16.862Z,90.62
2023-01-22T17:34:44.860Z,90.72
2023-01-22T17:37:13.632Z,90.81
2023-01-22T17:39:43.103Z,90.83
2023-01-22T17:42:11.191Z,90.91
2023-01-22T17:44:40.320Z,90.99
2023-01-22T17:47:08.355Z,90.93
2023-01-22T17:49:36.225Z,90.98
2023-01-22T17:52:04.627Z,91.07
2023-01-22T17:54:32.741Z,91.09
2023-01-22T17:57:00.833Z,91.14
2023-01-22T17:59:28.885Z,91.18
2023-01-22T18:01:57.720Z,91.27
2023-01-22T18:04:26.394Z,91.30
2023-01-22T18:06:54.375Z,91.33
2023-01-22T18:09:22.349Z,91.33
2023-01-22T18:11:50.677Z,91.37
2023-01-22T18:14:22.465Z,91.37
2023-01-22T18:16:51.063Z,91.37
2023-01-22T18:19:19.188Z,91.40
2023-01-22T18:21:47.296Z,91.41
2023-01-22T18:24:16.381Z,91.42
2023-01-22T18:26:44.581Z,91.44
2023-01-22T18:29:12.665Z,91.46
2023-01-22T18:31:41.814Z,91.49
2023-01-22T18:34:13.510Z,91.51
2023-01-22T18:36:42.430Z,91.53
2023-01-22T18:39:16.587Z,91.58
2023-01-22T18:41:47.081Z,91.63
2023-01-22T18:44:17.444Z,91.68
2023-01-22T18:46:48.276Z,91.68
2023-01-22T18:49:18.796Z,91.73
2023-01-22T18:51:47.908Z,91.72
2023-01-22T18:54:17.007Z,91.74
2023-01-22T18:56:46.259Z,91.79
2023-01-22T18:59:14.180Z,91.80
2023-01-22T19:04:36.571Z,91.84
2023-01-22T19:07:05.824Z,91.84
2023-01-22T19:09:34.400Z,91.89
2023-01-22T19:12:02.342Z,91.94
2023-01-22T19:14:30.384Z,91.98
2023-01-22T19:16:58.346Z,91.98
2023-01-22T19:19:27.275Z,91.99
2023-01-22T19:21:56.166Z,91.99
2023-01-22T19:24:26.849Z,92.01
2023-01-22T19:26:56.528Z,92.05
2023-01-22T19:29:25.902Z,92.07
2023-01-22T19:31:58.608Z,92.09
2023-01-22T19:34:32.334Z,92.11
2023-01-22T19:37:06.367Z,92.13
2023-01-22T19:39:35.469Z,92.16
2023-01-22T19:42:07.215Z,92.17
2023-01-22T19:44:35.584Z,92.18
2023-01-22T19:47:03.995Z,92.20
2023-01-22T19:49:32.405Z,92.20
2023-01-22T19:52:03.377Z,92.22
2023-01-22T19:54:31.631Z,92.23
2023-01-22T19:56:59.772Z,92.25
2023-01-22T19:59:27.766Z,92.25
2023-01-22T20:01:55.849Z,92.23
2023-01-22T20:04:28.656Z,92.25
2023-01-22T20:07:02.139Z,92.24
2023-01-22T20:09:30.592Z,92.25
2023-01-22T20:11:59.166Z,92.26
2023-01-22T20:14:33.333Z,92.26
2023-01-22T20:17:05.277Z,92.28
2023-01-22T20:19:33.226Z,92.28
2023-01-22T20:22:04.368Z,92.29
2023-01-22T20:24:32.842Z,92.27
2023-01-22T20:27:01.358Z,92.29
2023-01-22T20:29:29.292Z,92.31
2023-01-22T20:31:59.409Z,92.31
2023-01-22T20:34:27.421Z,92.33
2023-01-22T20:36:55.460Z,92.35
2023-01-22T20:39:23.674Z,92.37
2023-01-22T20:41:54.694Z,92.39
2023-01-22T20:44:22.800Z,92.39
2023-01-22T20:46:51.525Z,92.40
2023-01-22T20:49:19.411Z,92.40
2023-01-22T20:51:47.299Z,92.41
2023-01-22T20:54:15.255Z,92.42
2023-01-22T20:56:43.251Z,92.41
2023-01-22T20:59:17.056Z,92.40
2023-01-22T21:01:45.244Z,92.41
2023-01-22T21:04:14.587Z,92.41
2023-01-22T21:06:42.904Z,92.43
2023-01-22T21:09:11.110Z,92.45
2023-01-22T21:11:41.361Z,92.49
2023-01-22T21:14:15.781Z,92.49
2023-01-22T21:16:46.758Z,92.45
2023-01-22T21:19:18.085Z,92.43
2023-01-22T21:21:46.538Z,92.41
2023-01-22T21:24:14.494Z,92.44
2023-01-22T21:26:42.877Z,92.44
2023-01-22T21:29:17.075Z,92.44
2023-01-22T21:31:49.010Z,92.43
2023-01-22T21:34:19.747Z,92.38
2023-01-22T21:36:49.429Z,92.37
2023-01-22T21:39:19.479Z,92.39
2023-01-22T21:41:47.866Z,92.40
2023-01-22T21:44:38.572Z,92.37
2023-01-22T21:47:06.725Z,92.35
2023-01-22T21:49:36.129Z,92.37
2023-01-22T21:52:06.230Z,92.35
2023-01-22T21:54:36.792Z,92.34
2023-01-22T21:57:06.144Z,92.31
2023-01-22T21:59:36.842Z,92.32
2023-01-22T22:02:06.278Z,92.33
2023-01-22T22:04:34.338Z,92.34
2023-01-22T22:07:02.287Z,92.32
2023-01-22T22:09:30.942Z,92.29
2023-01-22T22:12:01.736Z,92.29
2023-01-22T22:14:29.934Z,92.30
2023-01-22T22:16:58.124Z,92.29
2023-01-22T22:19:26.324Z,92.30
2023-01-22T22:22:00.638Z,92.28
2023-01-22T22:24:28.664Z,92.30
2023-01-22T22:26:56.561Z,92.28
2023-01-22T22:29:24.492Z,92.26
2023-01-22T22:31:52.360Z,92.28
2023-01-22T22:34:20.290Z,92.28
2023-01-22T22:36:48.285Z,92.27
2023-01-22T22:39:16.226Z,92.30
2023-01-22T22:41:44.497Z,92.27
2023-01-22T22:44:13.295Z,92.28
2023-01-22T22:46:41.217Z,92.30
2023-01-22T22:49:12.597Z,92.34
2023-01-22T22:51:42.444Z,92.34
2023-01-22T22:54:19.818Z,92.35
2023-01-22T22:56:48.813Z,92.37
2023-01-22T22:59:19.881Z,92.40
2023-01-22T23:01:49.401Z,92.41
2023-01-22T23:04:17.495Z,92.45
2023-01-22T23:06:46.234Z,92.47
2023-01-22T23:09:17.074Z,92.47
2023-01-22T23:11:45.833Z,92.49
2023-01-22T23:14:13.867Z,92.52
2023-01-22T23:16:43.402Z,92.56
2023-01-22T23:19:23.724Z,92.57
2023-01-22T23:21:57.337Z,92.57
2023-01-22T23:24:26.378Z,92.59
2023-01-22T23:26:54.886Z,92.62
2023-01-22T23:29:24.996Z,92.65
2023-01-22T23:31:53.663Z,92.68
2023-01-22T23:34:22.456Z,92.71
2023-01-22T23:36:51.443Z,92.72
2023-01-22T23:39:21.382Z,92.71
2023-01-22T23:41:49.899Z,92.74
2023-01-22T23:44:18.308Z,92.75
2023-01-22T23:46:46.361Z,92.75
2023-01-22T23:49:14.282Z,92.75
2023-01-22T23:51:44.298Z,92.79
2023-01-22T23:54:12.401Z,92.82
2023-01-22T23:56:40.876Z,92.87
2023-01-22T23:59:11.756Z,92.90
